createdAt,value
2023-01-13T00:00:50.055Z,7.80
2023-01-13T00:03:19.488Z,7.80
2023-01-13T00:05:48.804Z,7.80
2023-01-13T00:08:19.693Z,7.80
2023-01-13T00:10:49.735Z,7.80
2023-01-13T00:13:26.849Z,7.80
2023-01-13T00:16:00.112Z,7.80
2023-01-13T00:18:29.943Z,7.80
2023-01-13T00:21:03.302Z,7.90
2023-01-13T00:23:35.987Z,7.80
2023-01-13T00:26:07.815Z,7.80
2023-01-13T00:28:37.571Z,7.80
2023-01-13T00:31:09.118Z,7.80
2023-01-13T00:33:39.243Z,7.70
2023-01-13T00:36:11.032Z,7.70
2023-01-13T00:38:43.275Z,7.70
2023-01-13T00:41:14.022Z,7.70
2023-01-13T00:43:42.325Z,7.70
2023-01-13T00:46:13.785Z,7.70
2023-01-13T00:48:43.269Z,7.60
2023-01-13T00:51:15.124Z,7.70
2023-01-13T00:53:47.742Z,7.60
2023-01-13T00:56:24.398Z,7.70
2023-01-13T00:59:00.440Z,7.60
2023-01-13T01:01:30.044Z,7.50
2023-01-13T01:03:59.891Z,7.60
2023-01-13T01:06:29.589Z,7.60
2023-01-13T01:09:00.422Z,7.60
2023-01-13T01:11:32.666Z,7.60
2023-01-13T01:14:03.662Z,7.70
2023-01-13T01:16:34.513Z,7.70
2023-01-13T01:19:04.236Z,7.70
2023-01-13T01:21:34.285Z,7.70
2023-01-13T01:24:06.024Z,7.60
2023-01-13T01:26:35.327Z,7.60
2023-01-13T01:29:04.631Z,7.60
2023-01-13T01:31:35.055Z,7.60
2023-01-13T01:34:04.741Z,7.50
2023-01-13T01:36:35.266Z,7.60
2023-01-13T01:39:07.115Z,7.60
2023-01-13T01:41:37.862Z,7.60
2023-01-13T01:44:28.909Z,7.60
2023-01-13T01:46:59.197Z,7.60
2023-01-13T01:49:32.867Z,7.60
2023-01-13T01:52:05.534Z,7.50
2023-01-13T01:54:41.883Z,7.60
2023-01-13T01:57:15.192Z,7.60
2023-01-13T01:59:44.773Z,7.60
2023-01-13T02:02:14.293Z,7.50
2023-01-13T02:04:51.373Z,7.50
2023-01-13T02:07:22.370Z,7.50
2023-01-13T02:09:54.617Z,7.50
2023-01-13T02:12:33.508Z,7.40
2023-01-13T02:15:06.575Z,7.40
2023-01-13T02:17:50.432Z,7.40
2023-01-13T02:20:53.817Z,7.40
2023-01-13T02:24:13.479Z,7.50
2023-01-13T02:27:20.283Z,7.50
2023-01-13T02:30:37.531Z,7.50
2023-01-13T02:33:31.504Z,7.40
2023-01-13T02:36:08.452Z,7.50
2023-01-13T02:38:43.806Z,7.40
2023-01-13T02:41:37.866Z,7.40
2023-01-13T02:44:08.741Z,7.50
2023-01-13T02:46:49.016Z,7.50
2023-01-13T02:49:26.529Z,7.50
2023-01-13T02:52:02.634Z,7.50
2023-01-13T02:54:35.147Z,7.60
2023-01-13T02:57:07.527Z,7.50
2023-01-13T02:59:39.599Z,7.50
2023-01-13T03:02:15.629Z,7.50
2023-01-13T03:04:57.467Z,7.50
2023-01-13T03:07:50.252Z,7.60
2023-01-13T03:10:44.697Z,7.50
2023-01-13T03:13:33.285Z,7.40
2023-01-13T03:16:15.730Z,7.40
2023-01-13T03:18:54.093Z,7.40
2023-01-13T03:21:28.668Z,7.40
2023-01-13T03:24:05.967Z,7.40
2023-01-13T03:26:41.626Z,7.40
2023-01-13T03:29:17.150Z,7.50
2023-01-13T03:31:52.223Z,7.50
2023-01-13T03:34:26.211Z,7.50
2023-01-13T03:36:58.994Z,7.50
2023-01-13T03:39:33.802Z,7.50
2023-01-13T03:42:07.032Z,7.50
2023-01-13T03:44:41.644Z,7.50
2023-01-13T03:47:22.567Z,7.50
2023-01-13T03:49:58.284Z,7.60
2023-01-13T03:52:31.365Z,7.50
2023-01-13T03:55:07.399Z,7.40
2023-01-13T03:57:41.734Z,7.40
2023-01-13T04:00:14.896Z,7.40
2023-01-13T04:02:52.540Z,7.50
2023-01-13T04:05:25.106Z,7.50
2023-01-13T04:08:02.809Z,7.40
2023-01-13T04:10:37.350Z,7.40
2023-01-13T04:13:11.007Z,7.40
2023-01-13T04:15:42.935Z,7.40
2023-01-13T04:18:16.691Z,7.40
2023-01-13T04:20:49.752Z,7.30
2023-01-13T04:23:20.623Z,7.30
2023-01-13T04:25:51.728Z,7.30
2023-01-13T04:28:21.561Z,7.30
2023-01-13T04:30:51.613Z,7.30
2023-01-13T04:33:21.895Z,7.30
2023-01-13T04:35:53.296Z,7.30
2023-01-13T04:38:26.446Z,7.30
2023-01-13T04:40:56.776Z,7.30
2023-01-13T04:43:26.461Z,7.30
2023-01-13T04:45:56.246Z,7.30
2023-01-13T04:48:26.021Z,7.40
2023-01-13T04:50:57.256Z,7.30
2023-01-13T04:53:26.986Z,7.40
2023-01-13T04:55:56.596Z,7.40
2023-01-13T04:58:26.372Z,7.40
2023-01-13T05:00:56.109Z,7.30
2023-01-13T05:03:27.028Z,7.30
2023-01-13T05:05:58.037Z,7.30
2023-01-13T05:08:27.362Z,7.30
2023-01-13T05:10:57.018Z,7.30
2023-01-13T05:13:43.717Z,7.40
2023-01-13T05:16:31.925Z,7.30
2023-01-13T05:19:01.477Z,7.40
2023-01-13T05:21:49.973Z,7.40
2023-01-13T05:24:37.196Z,7.40
2023-01-13T05:27:07.180Z,7.50
2023-01-13T05:29:36.707Z,7.30
2023-01-13T05:32:08.878Z,7.30
2023-01-13T05:34:38.378Z,7.30
2023-01-13T05:37:11.333Z,7.30
2023-01-13T05:39:54.546Z,7.40
2023-01-13T05:42:37.888Z,7.40
2023-01-13T05:45:08.218Z,7.30
2023-01-13T05:47:38.139Z,7.30
2023-01-13T05:50:08.600Z,7.30
2023-01-13T05:52:39.611Z,7.30
2023-01-13T05:55:09.645Z,7.30
2023-01-13T05:57:39.463Z,7.20
2023-01-13T06:00:10.095Z,7.30
2023-01-13T06:02:42.553Z,7.30
2023-01-13T06:05:12.810Z,7.20
2023-01-13T06:07:44.302Z,7.20
2023-01-13T06:10:14.758Z,7.30
2023-01-13T06:12:44.770Z,7.20
2023-01-13T06:15:14.860Z,7.20
2023-01-13T06:17:44.728Z,7.10
2023-01-13T06:20:17.014Z,7.20
2023-01-13T06:22:49.802Z,7.20
2023-01-13T06:25:26.326Z,7.20
2023-01-13T06:27:57.274Z,7.30
2023-01-13T06:30:28.062Z,7.30
2023-01-13T06:33:01.679Z,7.20
2023-01-13T06:35:36.975Z,7.30
2023-01-13T06:38:12.377Z,7.30
2023-01-13T06:40:44.170Z,7.30
2023-01-13T06:43:16.547Z,7.40
2023-01-13T06:45:50.944Z,7.40
2023-01-13T06:48:26.306Z,7.40
2023-01-13T06:50:56.159Z,7.40
2023-01-13T06:53:27.230Z,7.40
2023-01-13T06:55:56.841Z,7.40
2023-01-13T06:58:26.451Z,7.40
2023-01-13T07:00:56.207Z,7.40
2023-01-13T07:03:26.045Z,7.40
2023-01-13T07:05:57.127Z,7.40
2023-01-13T07:08:28.712Z,7.40
2023-01-13T07:10:58.341Z,7.50
2023-01-13T07:13:44.991Z,7.50
2023-01-13T07:16:15.149Z,7.50
2023-01-13T07:18:44.725Z,7.60
2023-01-13T07:21:19.053Z,7.60
2023-01-13T07:23:50.129Z,7.60
2023-01-13T07:26:20.098Z,7.60
2023-01-13T07:28:49.490Z,7.60
2023-01-13T07:31:21.165Z,7.60
2023-01-13T07:33:50.890Z,7.60
2023-01-13T07:36:21.066Z,7.60
2023-01-13T07:38:54.734Z,7.60
2023-01-13T07:41:41.675Z,7.70
2023-01-13T07:44:12.707Z,7.70
2023-01-13T07:46:42.931Z,7.80
2023-01-13T07:49:13.543Z,7.80
2023-01-13T07:51:43.164Z,7.70
2023-01-13T07:54:14.353Z,7.70
2023-01-13T07:56:43.764Z,7.70
2023-01-13T07:59:13.346Z,7.80
2023-01-13T08:01:42.944Z,7.70
2023-01-13T08:04:12.683Z,7.80
2023-01-13T08:06:42.480Z,7.80
2023-01-13T08:09:13.375Z,7.80
2023-01-13T08:11:43.092Z,7.90
2023-01-13T08:14:12.785Z,7.90
2023-01-13T08:16:42.278Z,8.00
2023-01-13T08:19:12.115Z,8.00
2023-01-13T08:21:42.239Z,8.00
2023-01-13T08:24:13.885Z,8.00
2023-01-13T08:26:43.673Z,8.00
2023-01-13T08:29:15.035Z,8.10
2023-01-13T08:31:45.003Z,8.10
2023-01-13T08:34:14.673Z,8.10
2023-01-13T08:36:44.411Z,8.10
2023-01-13T08:39:15.431Z,8.00
2023-01-13T08:41:58.905Z,8.10
2023-01-13T08:44:29.988Z,8.10
2023-01-13T08:46:59.441Z,8.10
2023-01-13T08:49:29.635Z,8.20
2023-01-13T08:51:59.634Z,8.20
2023-01-13T08:54:31.246Z,8.20
2023-01-13T08:57:03.567Z,8.30
2023-01-13T08:59:33.927Z,8.30
2023-01-13T09:02:04.653Z,8.30
2023-01-13T09:04:35.085Z,8.30
2023-01-13T09:07:04.849Z,8.30
2023-01-13T09:09:35.809Z,8.40
2023-01-13T09:12:23.531Z,8.30
2023-01-13T09:14:53.849Z,8.40
2023-01-13T09:17:24.851Z,8.30
2023-01-13T09:19:54.457Z,8.40
2023-01-13T09:22:27.230Z,8.40
2023-01-13T09:24:58.540Z,8.30
2023-01-13T09:27:29.047Z,8.40
2023-01-13T09:29:58.678Z,8.40
2023-01-13T09:32:28.107Z,8.40
2023-01-13T09:35:02.915Z,8.50
2023-01-13T09:37:35.682Z,8.50
2023-01-13T09:40:09.436Z,8.50
2023-01-13T09:43:05.104Z,8.60
2023-01-13T09:45:43.521Z,8.60
2023-01-13T09:48:17.767Z,8.60
2023-01-13T09:50:59.009Z,8.60
2023-01-13T09:53:34.364Z,8.70
2023-01-13T09:56:06.215Z,8.80
2023-01-13T09:58:35.860Z,8.90
2023-01-13T10:01:28.875Z,8.90
2023-01-13T10:03:59.399Z,8.90
2023-01-13T10:06:36.997Z,8.90
2023-01-13T10:09:07.520Z,8.90
2023-01-13T10:12:14.228Z,8.90
2023-01-13T10:14:47.772Z,8.90
2023-01-13T10:17:27.640Z,9.00
2023-01-13T10:20:04.745Z,9.00
2023-01-13T10:22:50.994Z,9.00
2023-01-13T10:25:29.623Z,9.00
2023-01-13T10:28:09.848Z,9.10
2023-01-13T10:30:41.241Z,9.10
2023-01-13T10:33:17.869Z,9.10
2023-01-13T10:36:02.815Z,9.20
2023-01-13T10:38:39.305Z,9.20
2023-01-13T10:41:19.755Z,9.20
2023-01-13T10:44:04.669Z,9.20
2023-01-13T10:46:36.311Z,9.20
2023-01-13T10:49:26.163Z,9.20
2023-01-13T10:51:56.136Z,9.20
2023-01-13T10:54:27.780Z,9.20
2023-01-13T10:57:20.723Z,9.30
2023-01-13T10:59:53.514Z,9.30
2023-01-13T11:02:29.943Z,9.30
2023-01-13T11:05:12.399Z,9.30
2023-01-13T11:07:43.833Z,9.40
2023-01-13T11:10:22.758Z,9.40
2023-01-13T11:13:01.140Z,9.40
2023-01-13T11:15:41.166Z,9.40
2023-01-13T11:18:20.056Z,9.50
2023-01-13T11:20:51.236Z,9.50
2023-01-13T11:23:25.926Z,9.50
2023-01-13T11:26:03.298Z,9.50
2023-01-13T11:28:45.716Z,9.50
2023-01-13T11:31:21.778Z,9.50
2023-01-13T11:33:56.259Z,9.60
2023-01-13T11:36:30.500Z,9.60
2023-01-13T11:39:10.172Z,9.60
2023-01-13T11:41:45.756Z,9.70
2023-01-13T11:44:21.058Z,9.70
2023-01-13T11:46:53.026Z,9.70
2023-01-13T11:49:27.889Z,9.70
2023-01-13T11:52:02.299Z,9.70
2023-01-13T11:54:53.137Z,9.70
2023-01-13T11:57:58.639Z,9.80
2023-01-13T12:00:44.169Z,9.80
2023-01-13T12:03:26.279Z,9.80
2023-01-13T12:06:12.774Z,9.80
2023-01-13T12:09:15.875Z,9.80
2023-01-13T12:12:16.288Z,9.80
2023-01-13T12:15:07.721Z,9.80
2023-01-13T12:17:46.854Z,9.80
2023-01-13T12:20:28.334Z,9.90
2023-01-13T12:23:02.909Z,9.90
2023-01-13T12:25:39.903Z,9.80
2023-01-13T12:28:16.525Z,9.80
2023-01-13T12:30:52.101Z,9.80
2023-01-13T12:33:27.906Z,9.80
2023-01-13T12:36:07.140Z,9.80
2023-01-13T12:38:40.662Z,9.80
2023-01-13T12:41:19.396Z,9.80
2023-01-13T12:44:08.547Z,9.90
2023-01-13T12:46:56.301Z,9.90
2023-01-13T12:49:27.923Z,9.90
2023-01-13T12:52:22.555Z,9.80
2023-01-13T12:55:14.959Z,9.90
2023-01-13T12:57:59.287Z,10.00
2023-01-13T13:00:36.107Z,10.10
2023-01-13T13:03:31.167Z,10.00
2023-01-13T13:06:05.140Z,10.00
2023-01-13T13:09:03.677Z,10.00
2023-01-13T13:12:11.275Z,10.00
2023-01-13T13:15:04.211Z,10.00
2023-01-13T13:18:01.624Z,9.90
2023-01-13T13:21:05.771Z,10.00
2023-01-13T13:24:04.758Z,10.10
2023-01-13T13:26:39.397Z,10.10
2023-01-13T13:29:37.282Z,10.10
2023-01-13T13:32:25.116Z,10.10
2023-01-13T13:35:04.622Z,10.10
2023-01-13T13:38:25.674Z,10.20
2023-01-13T13:41:12.908Z,10.30
2023-01-13T13:44:02.460Z,10.30
2023-01-13T13:46:49.480Z,10.20
2023-01-13T13:49:20.639Z,10.20
2023-01-13T13:51:59.959Z,10.10
2023-01-13T13:54:29.683Z,10.20
2023-01-13T13:56:59.354Z,10.20
2023-01-13T13:59:33.856Z,10.20
2023-01-13T14:02:05.010Z,10.20
2023-01-13T14:04:37.110Z,10.40
2023-01-13T14:07:18.554Z,10.30
2023-01-13T14:09:49.968Z,10.30
2023-01-13T14:12:21.644Z,10.20
2023-01-13T14:14:54.517Z,10.20
2023-01-13T14:17:26.810Z,10.20
2023-01-13T14:20:06.294Z,10.20
2023-01-13T14:22:36.322Z,10.20
2023-01-13T14:25:34.019Z,10.30
2023-01-13T14:28:27.687Z,10.20
2023-01-13T14:30:59.624Z,10.20
2023-01-13T14:33:37.294Z,10.00
2023-01-13T14:36:17.953Z,10.00
2023-01-13T14:38:48.672Z,10.10
2023-01-13T14:41:22.067Z,10.10
2023-01-13T14:43:55.147Z,10.20
2023-01-13T14:46:26.244Z,10.20
2023-01-13T14:49:02.080Z,10.10
2023-01-13T14:51:33.139Z,10.00
2023-01-13T14:54:02.796Z,10.10
2023-01-13T14:56:55.319Z,10.00
2023-01-13T14:59:48.727Z,10.00
2023-01-13T15:02:51.407Z,10.00
2023-01-13T15:05:39.348Z,10.00
2023-01-13T15:08:40.323Z,10.10
2023-01-13T15:11:21.032Z,10.10
2023-01-13T15:14:01.738Z,10.10
2023-01-13T15:16:34.720Z,10.10
2023-01-13T15:19:06.160Z,10.10
2023-01-13T15:21:39.606Z,10.20
2023-01-13T15:24:09.484Z,10.20
2023-01-13T15:26:38.803Z,10.20
2023-01-13T15:29:16.061Z,10.20
2023-01-13T15:31:45.471Z,10.20
2023-01-13T15:34:16.509Z,10.10
2023-01-13T15:36:45.861Z,10.10
2023-01-13T15:39:15.417Z,10.20
2023-01-13T15:42:02.584Z,10.20
2023-01-13T15:44:49.114Z,10.20
2023-01-13T15:47:18.678Z,10.20
2023-01-13T15:49:49.772Z,10.20
2023-01-13T15:52:21.982Z,10.20
2023-01-13T15:54:52.183Z,10.20
2023-01-13T15:57:24.794Z,10.10
2023-01-13T15:59:56.778Z,10.10
2023-01-13T16:02:26.852Z,10.10
2023-01-13T16:05:02.609Z,10.20
2023-01-13T16:07:31.939Z,10.20
2023-01-13T16:10:02.230Z,10.10
2023-01-13T16:12:31.651Z,10.10
2023-01-13T16:15:00.970Z,10.10
2023-01-13T16:17:31.735Z,10.10
2023-01-13T16:20:02.583Z,10.10
2023-01-13T16:22:32.322Z,10.10
2023-01-13T16:25:01.526Z,10.20
2023-01-13T16:27:30.774Z,10.00
2023-01-13T16:30:00.207Z,10.20
2023-01-13T16:32:29.547Z,10.10
2023-01-13T16:34:59.836Z,10.00
2023-01-13T16:37:30.548Z,10.10
2023-01-13T16:40:01.379Z,10.10
2023-01-13T16:42:30.621Z,10.10
2023-01-13T16:45:07.331Z,10.10
2023-01-13T16:47:37.563Z,10.10
2023-01-13T16:50:07.837Z,10.10
2023-01-13T16:52:38.618Z,10.10
2023-01-13T16:55:08.193Z,10.10
2023-01-13T16:57:37.560Z,10.10
2023-01-13T17:00:07.903Z,10.10
2023-01-13T17:02:37.415Z,10.10
2023-01-13T17:05:07.656Z,10.10
2023-01-13T17:07:38.397Z,10.10
2023-01-13T17:10:09.486Z,10.00
2023-01-13T17:12:39.579Z,10.00
2023-01-13T17:15:12.821Z,10.10
2023-01-13T17:17:43.488Z,10.10
2023-01-13T17:20:15.337Z,10.20
2023-01-13T17:22:57.691Z,10.10
2023-01-13T17:25:28.166Z,10.10
2023-01-13T17:27:58.557Z,10.10
2023-01-13T17:30:28.671Z,10.00
2023-01-13T17:32:58.643Z,10.10
2023-01-13T17:35:29.703Z,10.10
2023-01-13T17:38:02.256Z,10.00
2023-01-13T17:40:32.340Z,10.00
2023-01-13T17:43:02.187Z,10.00
2023-01-13T17:45:31.914Z,10.00
2023-01-13T17:48:02.210Z,10.00
2023-01-13T17:50:34.501Z,9.90
2023-01-13T17:53:06.357Z,9.80
2023-01-13T17:55:37.414Z,9.90
2023-01-13T17:58:07.518Z,9.80
2023-01-13T18:00:37.101Z,9.80
2023-01-13T18:03:06.847Z,9.80
2023-01-13T18:05:38.759Z,9.80
2023-01-13T18:08:11.483Z,9.60
2023-01-13T18:10:42.693Z,9.60
2023-01-13T18:13:16.129Z,9.50
2023-01-13T18:15:45.960Z,9.60
2023-01-13T18:18:16.589Z,9.60
2023-01-13T18:21:05.443Z,9.60
2023-01-13T18:24:02.948Z,9.60
2023-01-13T18:27:07.229Z,9.50
2023-01-13T18:29:43.735Z,9.40
2023-01-13T18:32:15.527Z,9.40
2023-01-13T18:34:46.481Z,9.40
2023-01-13T18:37:25.343Z,9.40
2023-01-13T18:39:59.550Z,9.40
2023-01-13T18:42:52.364Z,9.40
2023-01-13T18:45:25.993Z,9.30
2023-01-13T18:47:57.779Z,9.20
2023-01-13T18:50:28.798Z,9.10
2023-01-13T18:53:08.812Z,9.20
2023-01-13T18:55:44.444Z,9.20
2023-01-13T18:58:20.851Z,9.20
2023-01-13T19:00:52.266Z,9.20
2023-01-13T19:03:31.766Z,9.20
2023-01-13T19:06:08.289Z,9.20
2023-01-13T19:08:38.881Z,9.20
2023-01-13T19:11:10.787Z,9.20
2023-01-13T19:13:41.301Z,9.30
2023-01-13T19:16:12.084Z,9.20
2023-01-13T19:18:45.554Z,9.20
2023-01-13T19:21:18.576Z,9.20
2023-01-13T19:23:48.958Z,9.30
2023-01-13T19:26:21.736Z,9.40
2023-01-13T19:28:52.416Z,9.40
2023-01-13T19:31:23.951Z,9.40
2023-01-13T19:33:54.345Z,9.30
2023-01-13T19:36:25.099Z,9.30
2023-01-13T19:38:55.693Z,9.30
2023-01-13T19:41:44.535Z,9.40
2023-01-13T19:44:36.244Z,9.40
2023-01-13T19:47:10.129Z,9.30
2023-01-13T19:49:40.646Z,9.40
2023-01-13T19:52:10.989Z,9.40
2023-01-13T19:54:46.056Z,9.40
2023-01-13T19:57:21.185Z,9.40
2023-01-13T19:59:50.834Z,9.40
2023-01-13T20:02:28.472Z,9.40
2023-01-13T20:04:59.815Z,9.40
2023-01-13T20:07:33.083Z,9.40
2023-01-13T20:10:03.879Z,9.40
2023-01-13T20:12:35.671Z,9.50
2023-01-13T20:15:07.841Z,9.60
2023-01-13T20:17:38.867Z,9.60
2023-01-13T20:20:12.244Z,9.60
2023-01-13T20:22:43.205Z,9.70
2023-01-13T20:25:17.058Z,9.70
2023-01-13T20:27:49.556Z,9.70
2023-01-13T20:30:19.903Z,9.70
2023-01-13T20:32:51.024Z,9.70
2023-01-13T20:35:21.742Z,9.80
2023-01-13T20:37:52.156Z,9.90
2023-01-13T20:40:23.358Z,9.90
2023-01-13T20:42:54.752Z,9.90
2023-01-13T20:45:29.032Z,9.90
2023-01-13T20:47:59.674Z,9.90
2023-01-13T20:50:31.352Z,9.90
2023-01-13T20:53:05.226Z,9.80
2023-01-13T20:55:36.050Z,9.80
2023-01-13T20:58:08.029Z,9.80
2023-01-13T21:00:38.610Z,9.90
2023-01-13T21:03:08.638Z,9.80
2023-01-13T21:05:39.356Z,9.80
2023-01-13T21:08:10.505Z,9.90
2023-01-13T21:10:40.992Z,9.80
2023-01-13T21:13:30.410Z,9.80
2023-01-13T21:16:00.227Z,9.80
2023-01-13T21:18:46.947Z,9.80
2023-01-13T21:21:16.868Z,9.70
2023-01-13T21:23:47.802Z,9.60
2023-01-13T21:26:19.816Z,9.80
2023-01-13T21:28:51.111Z,9.70
2023-01-13T21:31:20.716Z,9.70
2023-01-13T21:33:54.972Z,9.70
2023-01-13T21:36:25.122Z,9.70
2023-01-13T21:38:55.046Z,9.60
2023-01-13T21:41:39.056Z,9.70
2023-01-13T21:44:29.803Z,9.70
2023-01-13T21:47:16.911Z,9.70
2023-01-13T21:49:47.772Z,9.60
2023-01-13T21:52:17.476Z,9.60
2023-01-13T21:55:04.070Z,9.60
2023-01-13T21:57:33.446Z,9.50
2023-01-13T22:00:05.346Z,9.50
2023-01-13T22:02:36.245Z,9.50
2023-01-13T22:05:08.791Z,9.40
2023-01-13T22:07:40.264Z,9.40
2023-01-13T22:10:12.836Z,9.40
2023-01-13T22:12:43.428Z,9.40
2023-01-13T22:15:15.464Z,9.40
2023-01-13T22:17:45.941Z,9.30
2023-01-13T22:20:15.636Z,9.30
2023-01-13T22:22:44.825Z,9.30
2023-01-13T22:25:16.176Z,9.30
2023-01-13T22:27:46.019Z,9.20
2023-01-13T22:30:19.120Z,9.30
2023-01-13T22:32:48.364Z,9.20
2023-01-13T22:35:17.928Z,9.30
2023-01-13T22:37:47.712Z,9.20
2023-01-13T22:40:17.696Z,9.20
2023-01-13T22:42:46.977Z,9.20
2023-01-13T22:45:18.238Z,9.20
2023-01-13T22:47:48.224Z,9.10
2023-01-13T22:50:20.995Z,9.20
2023-01-13T22:52:50.163Z,9.10
2023-01-13T22:55:19.328Z,9.10
2023-01-13T22:57:48.617Z,9.10
2023-01-13T23:00:20.951Z,9.00
2023-01-13T23:02:50.086Z,9.00
2023-01-13T23:05:19.319Z,9.00
2023-01-13T23:07:48.492Z,9.10
2023-01-13T23:10:18.158Z,9.00
2023-01-13T23:12:49.083Z,8.90
2023-01-13T23:15:20.009Z,8.80
2023-01-13T23:17:51.064Z,8.80
2023-01-13T23:20:20.741Z,8.80
2023-01-13T23:22:49.968Z,8.80
2023-01-13T23:25:19.519Z,8.80
2023-01-13T23:27:48.750Z,8.80
2023-01-13T23:30:19.777Z,8.70
2023-01-13T23:32:49.007Z,8.70
2023-01-13T23:35:18.312Z,8.70
2023-01-13T23:37:47.422Z,8.60
2023-01-13T23:40:16.686Z,8.60
2023-01-13T23:42:45.824Z,8.60
2023-01-13T23:45:14.966Z,8.60
2023-01-13T23:47:45.826Z,8.60
2023-01-13T23:50:14.956Z,8.50
2023-01-13T23:52:44.255Z,8.60
2023-01-13T23:55:13.521Z,8.50
2023-01-13T23:57:42.996Z,8.50
